Fife Ness, United Kingdom
Current Conditions -  °F | °C
As of 1:50 AM on Monday 22 Dec 2014 (Local Time) from EGQL Reporting Station
Light Rain Light Rain  
Wind Chill: 50°   Ceiling: 8000
Heat Index: 50°   Visibility: 6mi
Dew Point: 48°   Wind: 16mph
Humidity: 94%   Direction: 260°W
Pressure: 29.5"   Gusts: NA
Location:  56.3°N, 2.58°W
Report Text: EGQL 220150Z 26014KT 9999 -RA OVC080 10/09 Q0999 BLU
Loading
Personal Weather Stations






























Interactive Weather Map New forecast layout! Learn more

10-Day Weather Forecast

Advertisements
Track Severe Weather on mobile